57C

East Troy Municipal Airport

East Troy, Wisconsin, USA
METAR K57C 210955Z AUTO 34005KT 10SM SCT011 BKN019 OVC029 19/18 A2972 RMK AO2 T01900182
Observed Flight Rules
Jul-21 @ 09:55 UTC (9 minutes ago) Marginal Visual Flight Rules
Wind Visibility Clouds
340° at 5 knots 10 miles
  • Scattered at 1,100' AGL
  • Broken at 1,900' AGL
  • Overcast at 2,900' AGL
Temperatures Readings
Current 19°C / 66°F
Dewpoint 18°C / 64°F
Humidity 94%
Altimeter 29.72" Hg
Pressure 1006 hPa
Elevation 262
METAR K57C 210955Z AUTO 34005KT 10SM SCT011 BKN019 OVC029 19/18 A2972 RMK AO2 T01900182
Observed Flight Rules
Jul-21 @ 09:55 UTC
(9 minutes ago)
MVFR
Wind Visibility
340° at 5 knots 10 miles
Clouds
  • Scattered at 1,100' AGL
  • Broken at 1,900' AGL
  • Overcast at 2,900' AGL
Temperature Dewpoint
19°C / 66°F 18°C / 64°F
Humidity Altimeter Pressure
94% 29.72" Hg 1006 hPa